Time;durP1;ratioP1;P1;durP2;ratioP2;P2;SDS_P1;SDS_P2;PMS_P1;PMS_P2;Temp;Humidity;BMP_temperature;BMP_pressure;BME280_temperature;BME280_humidity;BME280_pressure;Samples;Min_cycle;Max_cycle;Signal;HPM_P1;HPM_P2
2022/07/25 00:00:02;;;;;;;4.47;3.42;;;20.90;94.70;;;;;;5046826;28;20043;-47
2022/07/25 00:02:27;;;;;;;5.00;3.38;;;20.90;94.90;;;;;;5046315;28;20048;-46
2022/07/25 00:04:53;;;;;;;3.90;3.17;;;20.80;95.10;;;;;;5046480;28;20390;-46
2022/07/25 00:07:19;;;;;;;7.25;3.40;;;20.80;95.20;;;;;;5046053;28;20414;-47
2022/07/25 00:09:44;;;;;;;6.18;3.65;;;20.80;95.20;;;;;;5045796;28;20479;-45
2022/07/25 00:12:10;;;;;;;5.25;4.32;;;20.80;95.30;;;;;;5046298;28;20359;-47
2022/07/25 00:14:36;;;;;;;6.85;4.65;;;20.80;95.30;;;;;;5046257;28;20041;-47
2022/07/25 00:17:01;;;;;;;6.00;4.85;;;20.80;95.40;;;;;;5046244;28;20056;-46
2022/07/25 00:19:27;;;;;;;6.28;5.18;;;20.70;95.40;;;;;;5028494;28;20052;-47
2022/07/25 00:21:53;;;;;;;7.35;5.32;;;20.70;95.50;;;;;;5046941;28;20049;-46
2022/07/25 00:24:18;;;;;;;7.53;4.95;;;20.70;95.60;;;;;;5050198;28;20193;-46
2022/07/25 00:26:44;;;;;;;8.70;5.68;;;20.60;95.90;;;;;;5049887;28;20120;-46
2022/07/25 00:29:10;;;;;;;7.25;5.82;;;20.60;95.90;;;;;;5050016;28;20081;-46
2022/07/25 00:31:35;;;;;;;7.25;5.82;;;20.50;96.00;;;;;;5049993;28;20044;-46
2022/07/25 00:34:02;;;;;;;6.78;5.57;;;20.50;96.10;;;;;;5050118;28;20037;-46
2022/07/25 00:36:27;;;;;;;7.82;5.97;;;20.50;96.30;;;;;;5049879;28;20056;-47
2022/07/25 00:38:53;;;;;;;7.25;6.00;;;20.40;96.40;;;;;;5049929;28;20045;-48
2022/07/25 00:41:19;;;;;;;8.25;6.25;;;20.40;96.50;;;;;;5049511;28;20044;-46
2022/07/25 00:43:45;;;;;;;9.52;7.03;;;20.40;96.70;;;;;;5050145;28;20041;-47
2022/07/25 00:46:15;;;;;;;8.93;6.55;;;20.30;96.90;;;;;;5049364;28;20048;-48
2022/07/25 00:48:42;;;;;;;7.85;6.88;;;20.30;97.00;;;;;;5049874;28;20425;-46
2022/07/25 00:51:09;;;;;;;8.38;6.50;;;20.30;97.10;;;;;;5049618;28;20045;-46
2022/07/25 00:53:35;;;;;;;9.02;8.15;;;20.20;97.20;;;;;;5048575;28;20548;-46
2022/07/25 00:56:02;;;;;;;9.27;7.32;;;20.20;97.30;;;;;;5049027;28;20552;-46
2022/07/25 00:58:28;;;;;;;9.00;8.10;;;20.10;97.30;;;;;;5049191;28;20052;-45
2022/07/25 01:00:54;;;;;;;8.20;7.38;;;20.10;97.40;;;;;;5049379;28;20128;-46
2022/07/25 01:03:20;;;;;;;9.85;8.23;;;20.10;97.50;;;;;;5049115;28;20128;-45
2022/07/25 01:05:46;;;;;;;8.90;8.00;;;20.10;97.60;;;;;;5049592;28;20414;-47
2022/07/25 01:08:12;;;;;;;9.10;8.18;;;20.00;97.70;;;;;;5048780;28;20063;-47
2022/07/25 01:10:38;;;;;;;9.15;8.25;;;20.00;97.60;;;;;;5048861;28;20139;-48
2022/07/25 01:13:04;;;;;;;9.15;8.07;;;20.00;97.50;;;;;;5049177;28;20053;-46
2022/07/25 01:15:30;;;;;;;12.02;8.18;;;20.00;97.40;;;;;;5048725;28;20363;-46
2022/07/25 01:17:56;;;;;;;10.43;8.10;;;20.00;97.40;;;;;;5049036;28;20044;-48
2022/07/25 01:20:23;;;;;;;8.90;8.05;;;20.00;97.30;;;;;;5030944;28;20462;-46
2022/07/25 01:22:50;;;;;;;9.57;8.45;;;20.00;97.30;;;;;;5049112;28;20094;-47
2022/07/25 01:25:16;;;;;;;9.43;8.30;;;20.00;97.30;;;;;;5048665;28;20048;-47
2022/07/25 01:27:42;;;;;;;11.52;8.40;;;19.90;97.20;;;;;;5030703;28;20045;-48
2022/07/25 01:30:10;;;;;;;12.50;8.07;;;19.90;97.20;;;;;;5049097;28;20041;-45
2022/07/25 01:32:36;;;;;;;9.13;8.27;;;19.90;97.20;;;;;;5048300;28;20511;-47
2022/07/25 01:35:03;;;;;;;10.85;9.23;;;19.90;97.10;;;;;;5048612;28;20037;-46
2022/07/25 01:37:29;;;;;;;10.52;9.45;;;19.90;97.20;;;;;;5048790;28;20044;-49
2022/07/25 01:39:55;;;;;;;10.30;8.30;;;19.80;97.20;;;;;;5048768;28;20045;-46
2022/07/25 01:42:21;;;;;;;10.30;9.23;;;19.80;97.20;;;;;;5048284;28;20445;-46
2022/07/25 01:44:46;;;;;;;10.85;9.52;;;19.80;97.30;;;;;;5048567;28;20128;-50
2022/07/25 01:47:12;;;;;;;11.45;9.35;;;19.70;97.40;;;;;;5048694;28;20717;-46
2022/07/25 01:49:38;;;;;;;10.63;8.82;;;19.70;97.30;;;;;;5048418;28;20053;-46
2022/07/25 01:52:03;;;;;;;10.43;9.35;;;19.70;97.40;;;;;;5048842;28;20045;-46
2022/07/25 01:54:29;;;;;;;10.60;9.50;;;19.70;97.40;;;;;;5048434;28;20040;-47
2022/07/25 01:56:57;;;;;;;9.57;8.48;;;19.70;97.40;;;;;;5048875;28;20079;-47
2022/07/25 01:59:23;;;;;;;11.98;9.63;;;19.70;97.90;;;;;;5048442;28;20080;-46
2022/07/25 02:01:48;;;;;;;11.52;9.95;;;19.60;97.40;;;;;;5048284;28;20534;-46
2022/07/25 02:04:14;;;;;;;10.63;9.63;;;19.60;97.40;;;;;;5048424;28;20600;-48
2022/07/25 02:06:42;;;;;;;11.57;9.38;;;19.50;97.50;;;;;;5047863;28;20053;-46
2022/07/25 02:09:09;;;;;;;11.70;9.93;;;19.50;97.60;;;;;;5048666;28;20052;-46
2022/07/25 02:11:35;;;;;;;10.40;9.40;;;19.40;97.80;;;;;;5047378;28;20040;-46
2022/07/25 02:14:01;;;;;;;10.30;9.30;;;19.40;97.90;;;;;;5048284;28;20497;-46
2022/07/25 02:16:27;;;;;;;11.23;9.55;;;19.30;97.90;;;;;;5047708;28;20041;-46
2022/07/25 02:18:53;;;;;;;10.88;9.48;;;19.30;98.00;;;;;;5047841;28;20064;-47
2022/07/25 02:21:19;;;;;;;12.10;9.75;;;19.30;97.90;;;;;;5048317;28;20041;-46
2022/07/25 02:23:45;;;;;;;10.77;9.68;;;19.30;97.90;;;;;;5047713;28;20506;-46
2022/07/25 02:26:12;;;;;;;10.85;9.75;;;19.30;97.80;;;;;;5048497;28;20049;-47
2022/07/25 02:28:38;;;;;;;10.98;9.68;;;19.30;97.80;;;;;;5047746;28;20045;-47
2022/07/25 02:31:04;;;;;;;10.52;9.43;;;19.30;97.80;;;;;;5047695;28;20068;-48
2022/07/25 02:33:30;;;;;;;10.68;9.57;;;19.30;97.90;;;;;;5047634;28;20090;-46
2022/07/25 02:35:55;;;;;;;11.00;9.80;;;19.30;97.90;;;;;;5047775;28;20782;-46
2022/07/25 02:38:21;;;;;;;10.38;9.32;;;19.20;98.00;;;;;;5029528;28;20049;-47
2022/07/25 02:40:49;;;;;;;11.88;10.68;;;19.20;98.10;;;;;;5047181;28;20076;-46
2022/07/25 02:43:15;;;;;;;12.15;10.88;;;19.20;98.40;;;;;;5047747;28;20466;-47
2022/07/25 02:45:41;;;;;;;11.05;9.95;;;19.20;98.20;;;;;;5028534;28;20041;-46
2022/07/25 02:48:07;;;;;;;14.52;10.77;;;19.10;98.20;;;;;;5047635;28;20051;-49
2022/07/25 02:50:33;;;;;;;17.98;10.95;;;19.10;98.30;;;;;;5047511;28;20036;-46
2022/07/25 02:52:58;;;;;;;13.52;10.20;;;19.10;98.30;;;;;;5047415;28;20041;-46
2022/07/25 02:55:24;;;;;;;12.13;10.88;;;19.10;98.40;;;;;;5047429;28;20040;-47
2022/07/25 02:57:50;;;;;;;18.58;12.07;;;19.10;98.50;;;;;;5047084;28;20733;-46
2022/07/25 03:00:16;;;;;;;11.88;10.68;;;19.10;98.40;;;;;;5012592;28;20049;-47
2022/07/25 03:02:42;;;;;;;12.45;11.25;;;19.10;98.40;;;;;;5046984;28;20376;-46
2022/07/25 03:05:10;;;;;;;12.32;11.07;;;19.10;98.40;;;;;;5047272;28;20051;-46
2022/07/25 03:07:36;;;;;;;11.98;10.77;;;19.10;98.40;;;;;;5046602;28;20118;-49
2022/07/25 03:10:04;;;;;;;12.35;11.15;;;19.10;98.40;;;;;;5028859;28;20136;-46
2022/07/25 03:12:31;;;;;;;12.93;11.20;;;19.10;98.40;;;;;;5046796;28;20526;-48
2022/07/25 03:14:58;;;;;;;12.68;11.38;;;19.00;98.50;;;;;;5029332;28;20045;-46
2022/07/25 03:17:23;;;;;;;12.93;11.63;;;19.00;98.50;;;;;;5047115;28;20079;-46
2022/07/25 03:19:49;;;;;;;14.90;11.73;;;19.00;98.50;;;;;;5045373;28;20365;-46
2022/07/25 03:22:15;;;;;;;12.15;11.05;;;18.80;98.60;;;;;;5047132;28;20354;-46
2022/07/25 03:24:41;;;;;;;12.77;11.48;;;19.20;98.80;;;;;;5046620;28;20049;-46
2022/07/25 03:27:06;;;;;;;15.52;12.60;;;18.90;98.80;;;;;;5046934;28;20045;-46
2022/07/25 03:29:32;;;;;;;15.68;12.43;;;18.90;98.90;;;;;;5047067;28;20073;-48
2022/07/25 03:31:58;;;;;;;11.27;10.25;;;18.90;99.00;;;;;;5047464;28;20498;-47
2022/07/25 03:34:24;;;;;;;13.52;11.68;;;18.90;99.20;;;;;;5047239;28;20118;-47
2022/07/25 03:36:49;;;;;;;14.35;11.77;;;18.80;99.30;;;;;;5046760;28;20135;-50
2022/07/25 03:39:15;;;;;;;12.27;11.07;;;18.90;99.30;;;;;;5047207;28;20060;-46
2022/07/25 03:41:41;;;;;;;15.40;11.13;;;18.80;99.40;;;;;;5046659;28;20045;-47
2022/07/25 03:44:07;;;;;;;13.73;11.00;;;18.80;99.50;;;;;;5047167;28;20140;-46
2022/07/25 03:46:33;;;;;;;11.77;10.68;;;18.80;99.70;;;;;;5046719;28;20505;-47
2022/07/25 03:48:58;;;;;;;12.20;10.95;;;18.80;99.70;;;;;;5046786;28;20080;-47
2022/07/25 03:51:24;;;;;;;11.77;10.65;;;18.80;99.70;;;;;;5047118;28;20493;-47
2022/07/25 03:54:02;;;;;;;12.65;10.73;;;18.80;99.60;;;;;;5046542;28;20128;-47
2022/07/25 03:56:29;;;;;;;12.05;10.85;;;18.80;99.70;;;;;;5046590;28;20045;-46
2022/07/25 03:58:54;;;;;;;12.95;10.85;;;18.90;99.60;;;;;;5050924;28;20053;-48
2022/07/25 04:01:20;;;;;;;12.35;10.50;;;18.90;99.60;;;;;;5051118;28;20052;-47
2022/07/25 04:03:46;;;;;;;11.45;9.88;;;18.90;99.50;;;;;;5050433;28;20044;-46
2022/07/25 04:06:12;;;;;;;13.30;10.25;;;18.90;99.50;;;;;;5050521;28;20052;-48
2022/07/25 04:08:38;;;;;;;11.05;9.90;;;18.90;99.40;;;;;;5049437;28;20644;-46
2022/07/25 04:11:03;;;;;;;11.07;9.88;;;18.90;99.40;;;;;;5049863;28;20053;-48
2022/07/25 04:13:29;;;;;;;13.00;10.00;;;19.00;99.20;;;;;;5049875;28;20035;-46
2022/07/25 04:15:55;;;;;;;11.57;9.88;;;19.00;99.10;;;;;;5050356;28;20044;-46
2022/07/25 04:18:21;;;;;;;10.75;9.73;;;19.10;99.20;;;;;;5050473;28;20041;-48
2022/07/25 04:20:46;;;;;;;10.90;9.80;;;19.10;99.00;;;;;;5049994;28;20045;-46
2022/07/25 04:23:12;;;;;;;13.73;9.57;;;19.00;99.10;;;;;;5049772;28;20037;-46
2022/07/25 04:25:38;;;;;;;10.82;9.65;;;19.00;99.00;;;;;;5050064;28;20047;-46
2022/07/25 04:28:04;;;;;;;13.52;9.95;;;19.10;99.10;;;;;;5050189;28;20045;-46
2022/07/25 04:30:29;;;;;;;10.80;9.70;;;19.00;99.10;;;;;;5049901;28;20501;-46
2022/07/25 04:32:55;;;;;;;12.13;10.05;;;19.10;99.00;;;;;;5049683;28;20555;-46
2022/07/25 04:35:21;;;;;;;11.98;9.35;;;19.20;98.90;;;;;;5049661;28;20063;-46
2022/07/25 04:37:47;;;;;;;13.75;9.52;;;19.40;98.70;;;;;;5049968;28;20364;-47
2022/07/25 04:40:13;;;;;;;11.30;10.10;;;19.50;98.50;;;;;;5050239;28;20390;-46
2022/07/25 04:42:39;;;;;;;9.43;8.52;;;19.60;98.30;;;;;;5049622;28;20045;-47
2022/07/25 04:45:05;;;;;;;9.05;7.97;;;19.70;98.10;;;;;;5050258;28;20047;-47
2022/07/25 04:47:31;;;;;;;10.07;9.05;;;19.80;97.90;;;;;;5049854;28;20128;-47
2022/07/25 04:49:56;;;;;;;10.15;9.18;;;20.00;97.70;;;;;;5049883;28;20211;-46
2022/07/25 04:52:22;;;;;;;10.20;9.20;;;20.20;97.30;;;;;;5050693;28;20037;-47
2022/07/25 04:54:48;;;;;;;10.43;9.43;;;20.50;97.30;;;;;;5049987;28;20394;-46
2022/07/25 04:57:13;;;;;;;12.50;9.18;;;20.60;97.00;;;;;;5050215;28;20048;-46
2022/07/25 04:59:39;;;;;;;9.15;8.25;;;20.80;96.60;;;;;;5050020;28;20056;-46
2022/07/25 05:02:05;;;;;;;10.40;8.88;;;20.90;96.50;;;;;;5049517;28;20175;-46
2022/07/25 05:04:30;;;;;;;16.05;9.55;;;21.00;96.40;;;;;;5049378;28;20080;-48
2022/07/25 05:06:56;;;;;;;9.52;8.45;;;21.10;96.20;;;;;;5049503;28;20501;-47
2022/07/25 05:09:21;;;;;;;12.80;9.52;;;21.20;96.10;;;;;;5048194;28;20154;-46
2022/07/25 05:11:47;;;;;;;9.93;8.93;;;21.20;95.90;;;;;;5030585;28;20056;-47
2022/07/25 05:14:13;;;;;;;9.80;8.70;;;21.30;95.70;;;;;;5049608;28;20056;-47
2022/07/25 05:16:38;;;;;;;10.50;9.13;;;21.30;95.50;;;;;;5049803;28;20037;-46
2022/07/25 05:19:04;;;;;;;12.80;9.60;;;21.50;95.10;;;;;;5049305;28;20403;-46
2022/07/25 05:21:31;;;;;;;9.50;8.50;;;21.60;94.90;;;;;;5049603;28;20514;-46
2022/07/25 05:23:56;;;;;;;14.82;8.95;;;21.80;94.60;;;;;;5049350;28;20037;-47
2022/07/25 05:26:22;;;;;;;11.00;9.10;;;22.00;94.30;;;;;;5049066;28;20044;-47
2022/07/25 05:28:47;;;;;;;10.68;8.52;;;22.20;93.80;;;;;;5048928;28;20403;-46
2022/07/25 05:31:13;;;;;;;12.65;9.25;;;22.30;93.50;;;;;;5049249;28;20041;-47
2022/07/25 05:33:39;;;;;;;10.18;7.60;;;22.50;93.20;;;;;;5049017;28;20161;-46
2022/07/25 05:36:05;;;;;;;10.88;9.68;;;22.80;92.90;;;;;;5049285;28;20492;-48
2022/07/25 05:38:31;;;;;;;11.70;8.85;;;23.00;92.60;;;;;;5049409;28;20393;-46
2022/07/25 05:40:56;;;;;;;10.55;9.18;;;23.00;92.00;;;;;;5048569;28;20045;-46
2022/07/25 05:43:22;;;;;;;10.25;8.73;;;23.10;91.80;;;;;;5049293;28;20045;-49
2022/07/25 05:45:48;;;;;;;12.80;9.00;;;23.10;91.50;;;;;;5048691;28;20052;-47
2022/07/25 05:48:14;;;;;;;10.57;8.02;;;23.30;91.60;;;;;;5048694;28;20041;-47
2022/07/25 05:50:40;;;;;;;11.85;8.52;;;23.40;91.40;;;;;;5048643;28;20033;-48
2022/07/25 05:53:06;;;;;;;12.13;8.20;;;23.80;90.80;;;;;;5048707;28;20040;-46
2022/07/25 05:55:32;;;;;;;11.65;8.52;;;24.00;90.50;;;;;;5048619;28;20437;-46
2022/07/25 05:57:57;;;;;;;8.85;7.70;;;24.00;90.40;;;;;;5048679;28;20072;-46
2022/07/25 06:00:23;;;;;;;9.68;7.80;;;24.00;90.50;;;;;;5048495;28;20044;-47
2022/07/25 06:02:49;;;;;;;10.73;7.80;;;24.10;90.30;;;;;;5048367;28;20049;-47
2022/07/25 06:05:15;;;;;;;9.25;8.13;;;24.10;90.30;;;;;;5048246;28;20055;-46
2022/07/25 06:07:40;;;;;;;10.95;7.60;;;24.10;90.30;;;;;;5048121;28;20475;-47
2022/07/25 06:10:07;;;;;;;9.98;7.53;;;24.10;90.20;;;;;;5029594;28;20402;-46
2022/07/25 06:12:33;;;;;;;9.15;7.25;;;24.00;90.30;;;;;;5048092;28;20052;-48
2022/07/25 06:14:59;;;;;;;10.25;6.97;;;24.00;90.60;;;;;;5047942;28;20049;-48
2022/07/25 06:17:25;;;;;;;13.30;7.18;;;24.10;90.80;;;;;;5030159;28;20543;-46
2022/07/25 06:19:51;;;;;;;7.35;6.65;;;24.10;90.90;;;;;;5047726;28;20151;-47
2022/07/25 06:22:18;;;;;;;18.65;7.47;;;24.00;90.90;;;;;;5047688;28;20045;-46
2022/07/25 06:24:44;;;;;;;7.38;6.60;;;24.00;90.90;;;;;;5047735;28;20049;-48
2022/07/25 06:27:10;;;;;;;8.55;6.32;;;24.00;90.50;;;;;;5048073;28;20155;-47
2022/07/25 06:29:36;;;;;;;11.10;6.60;;;24.10;90.50;;;;;;5029815;28;20052;-47
2022/07/25 06:32:02;;;;;;;7.90;6.50;;;24.30;90.40;;;;;;5047961;28;20041;-46
2022/07/25 06:34:28;;;;;;;8.98;6.43;;;24.60;90.00;;;;;;5047295;28;20589;-47
2022/07/25 06:36:56;;;;;;;6.80;6.07;;;25.00;89.00;;;;;;5046986;28;20482;-47
2022/07/25 06:39:22;;;;;;;7.90;6.05;;;25.50;89.00;;;;;;5046969;28;20150;-47
2022/07/25 06:41:47;;;;;;;7.63;6.18;;;26.00;89.10;;;;;;5046760;28;20041;-48
2022/07/25 06:44:13;;;;;;;7.72;6.10;;;26.90;86.30;;;;;;5046402;28;20051;-47
2022/07/25 06:46:39;;;;;;;7.43;6.15;;;27.60;84.60;;;;;;5046884;28;20040;-47
2022/07/25 06:49:05;;;;;;;7.82;6.38;;;27.80;83.50;;;;;;5046916;28;20511;-48
2022/07/25 06:51:30;;;;;;;8.15;6.03;;;27.90;81.70;;;;;;5046217;28;20187;-48
2022/07/25 06:53:56;;;;;;;7.45;5.85;;;28.70;79.50;;;;;;5046602;28;20067;-48
2022/07/25 06:56:22;;;;;;;8.30;6.80;;;29.80;77.40;;;;;;5047197;28;20033;-49
2022/07/25 06:58:48;;;;;;;8.13;6.22;;;30.90;73.20;;;;;;5029321;28;20059;-47
2022/07/25 07:01:13;;;;;;;9.18;6.68;;;31.80;70.50;;;;;;5047183;28;20124;-48
2022/07/25 07:03:39;;;;;;;8.10;5.47;;;32.70;67.20;;;;;;5028937;28;20088;-48
2022/07/25 07:06:06;;;;;;;8.13;6.65;;;34.00;66.00;;;;;;5046672;28;20060;-48
2022/07/25 07:08:32;;;;;;;7.63;5.40;;;34.30;63.00;;;;;;5046405;28;20049;-49
2022/07/25 07:10:58;;;;;;;6.00;5.40;;;35.00;61.70;;;;;;5046559;28;20136;-49
2022/07/25 07:13:24;;;;;;;6.57;4.85;;;35.80;59.60;;;;;;5046144;28;20128;-48
2022/07/25 07:15:50;;;;;;;7.57;5.80;;;36.80;58.10;;;;;;5046428;28;20052;-50
2022/07/25 07:18:17;;;;;;;7.97;5.88;;;37.20;56.30;;;;;;5046383;28;20048;-48
2022/07/25 07:20:44;;;;;;;6.78;4.78;;;37.90;55.10;;;;;;5045678;28;20090;-52
2022/07/25 07:23:10;;;;;;;6.53;4.90;;;38.30;54.30;;;;;;5046215;28;20111;-48
2022/07/25 07:25:36;;;;;;;6.72;5.28;;;38.50;54.30;;;;;;5045910;28;20495;-50
2022/07/25 07:28:02;;;;;;;6.55;5.07;;;37.80;53.50;;;;;;5046356;28;20080;-48
2022/07/25 07:30:28;;;;;;;5.53;4.88;;;36.40;53.90;;;;;;5046069;28;20049;-49
2022/07/25 07:32:54;;;;;;;4.85;4.40;;;36.10;54.60;;;;;;5046096;28;20186;-48
2022/07/25 07:35:19;;;;;;;5.50;4.40;;;37.00;54.20;;;;;;5046050;28;20037;-48
2022/07/25 07:37:46;;;;;;;5.22;4.68;;;37.80;53.30;;;;;;5046438;28;20474;-50
2022/07/25 07:40:13;;;;;;;5.18;4.68;;;38.20;52.80;;;;;;5046058;28;20045;-49
2022/07/25 07:42:41;;;;;;;5.35;4.85;;;37.80;52.10;;;;;;5046366;28;20558;-48
2022/07/25 07:45:16;;;;;;;6.65;5.20;;;36.90;52.50;;;;;;5046035;28;20045;-48
2022/07/25 07:47:41;;;;;;;6.03;4.13;;;37.30;54.00;;;;;;5046635;28;20060;-48
2022/07/25 07:50:08;;;;;;;6.47;4.43;;;35.70;54.00;;;;;;5045862;28;20033;-46
2022/07/25 07:52:34;;;;;;;8.82;4.60;;;35.30;55.30;;;;;;5046083;28;20087;-48
2022/07/25 07:57:44;;;;;;;9.18;5.15;;;34.30;56.20;;;;;;5046745;28;20103;-47
2022/07/25 08:00:11;;;;;;;5.70;5.20;;;33.30;57.00;;;;;;5046196;28;20061;-47
2022/07/25 08:02:44;;;;;;;9.85;5.50;;;32.90;58.30;;;;;;5046493;28;20418;-47
2022/07/25 08:05:10;;;;;;;9.55;4.93;;;32.80;59.40;;;;;;5044384;28;20103;-47
2022/07/25 08:07:36;;;;;;;6.90;5.97;;;32.50;60.00;;;;;;5045483;28;20044;-47
2022/07/25 08:10:02;;;;;;;7.00;6.15;;;32.20;61.90;;;;;;5045954;28;20041;-47
2022/07/25 08:12:27;;;;;;;7.50;5.80;;;31.70;60.90;;;;;;5045626;28;20045;-46
2022/07/25 08:14:53;;;;;;;5.85;4.88;;;31.80;61.40;;;;;;5045921;28;20394;-47
2022/07/25 08:17:19;;;;;;;6.55;5.47;;;32.60;61.00;;;;;;5027497;28;20076;-50
2022/07/25 08:19:44;;;;;;;7.82;4.72;;;33.40;60.40;;;;;;5045840;28;20147;-47
2022/07/25 08:22:10;;;;;;;6.63;5.25;;;34.20;59.40;;;;;;5045748;28;20394;-47
2022/07/25 08:24:35;;;;;;;6.43;5.32;;;34.50;58.40;;;;;;5045736;28;20446;-47
2022/07/25 08:27:01;;;;;;;5.63;5.13;;;34.70;57.70;;;;;;5045627;28;20454;-47
2022/07/25 08:29:27;;;;;;;7.13;5.32;;;34.60;57.40;;;;;;5045651;28;20075;-47
2022/07/25 08:31:52;;;;;;;6.72;4.43;;;34.10;57.20;;;;;;5045857;28;20049;-47
2022/07/25 08:34:21;;;;;;;5.63;3.88;;;33.40;57.60;;;;;;5045203;28;20045;-47
2022/07/25 08:36:47;;;;;;;4.68;4.07;;;32.40;58.00;;;;;;5026838;28;20463;-46
2022/07/25 08:39:13;;;;;;;8.23;4.07;;;31.70;58.90;;;;;;5045077;28;20056;-47
2022/07/25 08:41:40;;;;;;;7.57;4.43;;;31.20;60.50;;;;;;5045045;28;20049;-47
2022/07/25 08:44:08;;;;;;;6.07;4.00;;;31.50;61.40;;;;;;5028876;28;20544;-46
2022/07/25 08:46:34;;;;;;;8.40;4.40;;;31.90;61.30;;;;;;5049630;28;20080;-47
2022/07/25 08:49:00;;;;;;;5.13;3.97;;;31.70;61.10;;;;;;5049446;28;20044;-46
2022/07/25 08:51:27;;;;;;;6.13;3.95;;;31.50;61.20;;;;;;5049019;28;20043;-47
2022/07/25 08:53:53;;;;;;;6.75;4.47;;;31.20;61.50;;;;;;5031184;28;20084;-46
2022/07/25 08:56:19;;;;;;;9.57;3.72;;;30.80;61.90;;;;;;5048965;28;20066;-47
2022/07/25 08:58:45;;;;;;;4.55;3.72;;;30.40;62.80;;;;;;5049245;28;20475;-45
2022/07/25 09:01:11;;;;;;;5.13;3.17;;;30.50;63.70;;;;;;5049269;28;20371;-47
2022/07/25 09:03:37;;;;;;;6.43;3.30;;;30.60;63.40;;;;;;5048702;28;20155;-46
2022/07/25 09:06:18;;;;;;;3.97;3.15;;;30.30;63.40;;;;;;5048790;28;20057;-48
2022/07/25 09:08:55;;;;;;;5.38;3.67;;;29.90;64.10;;;;;;5048185;28;20136;-47
2022/07/25 09:11:32;;;;;;;6.47;3.72;;;29.30;64.80;;;;;;5019764;28;20191;-46
2022/07/25 09:14:00;;;;;;;8.02;4.72;;;28.70;67.10;;;;;;5010139;28;20057;-46
2022/07/25 09:16:40;;;;;;;7.28;3.95;;;28.20;69.80;;;;;;5010281;28;20120;-46
2022/07/25 09:19:09;;;;;;;3.92;3.53;;;27.60;71.40;;;;;;5006694;28;20056;-45
2022/07/25 09:21:35;;;;;;;4.47;3.63;;;27.40;73.20;;;;;;5005183;28;20092;-46
2022/07/25 09:24:15;;;;;;;5.95;4.15;;;27.30;74.30;;;;;;5005401;28;20041;-46
2022/07/25 09:26:50;;;;;;;4.03;3.63;;;27.10;74.50;;;;;;5005609;28;20420;-45
2022/07/25 09:29:22;;;;;;;4.00;3.70;;;27.00;75.10;;;;;;5005864;28;20377;-45
2022/07/25 09:31:49;;;;;;;4.75;4.07;;;26.80;75.80;;;;;;5005133;28;20493;-45
2022/07/25 09:34:33;;;;;;;5.93;3.85;;;26.60;76.40;;;;;;5004759;28;20457;-47
2022/07/25 09:37:00;;;;;;;6.40;4.55;;;26.50;76.70;;;;;;5005182;28;20088;-46
2022/07/25 09:39:38;;;;;;;6.07;4.10;;;26.40;76.40;;;;;;5005466;28;20081;-45
2022/07/25 09:42:14;;;;;;;4.35;3.80;;;26.50;76.90;;;;;;5003737;28;20123;-47
2022/07/25 09:44:40;;;;;;;6.10;3.40;;;27.00;77.20;;;;;;5006004;28;20053;-46
2022/07/25 09:47:13;;;;;;;7.60;3.78;;;27.30;76.20;;;;;;5005549;28;20038;-45
2022/07/25 09:49:41;;;;;;;4.53;3.95;;;27.70;75.60;;;;;;5005876;28;20042;-47
2022/07/25 09:52:07;;;;;;;6.10;4.13;;;27.90;74.50;;;;;;5005707;28;20042;-47
2022/07/25 09:54:34;;;;;;;6.72;3.83;;;27.90;73.90;;;;;;5004718;28;20085;-46
2022/07/25 09:57:00;;;;;;;3.40;2.90;;;28.10;73.40;;;;;;5005827;28;20585;-46
2022/07/25 09:59:26;;;;;;;3.67;3.03;;;28.30;73.20;;;;;;5004783;28;20052;-47
2022/07/25 10:02:05;;;;;;;4.63;2.65;;;28.40;72.80;;;;;;5005641;28;20049;-46
2022/07/25 10:05:10;;;;;;;16.35;2.85;;;28.30;72.70;;;;;;5004037;28;20061;-45
2022/07/25 10:07:37;;;;;;;2.65;1.48;;;28.40;72.80;;;;;;4988996;28;20060;-46
2022/07/25 10:10:04;;;;;;;4.65;1.45;;;29.00;72.00;;;;;;5005365;28;20049;-47
2022/07/25 10:12:30;;;;;;;2.97;1.08;;;29.60;71.00;;;;;;4999928;28;20056;-46
2022/07/25 10:15:08;;;;;;;1.70;1.00;;;29.80;68.30;;;;;;5023992;28;20379;-47
2022/07/25 10:17:35;;;;;;;1.88;0.95;;;29.90;67.40;;;;;;5024039;28;20391;-47
2022/07/25 10:20:03;;;;;;;1.52;0.85;;;30.00;67.10;;;;;;5024590;28;20096;-47
2022/07/25 10:22:37;;;;;;;1.70;1.00;;;29.80;66.80;;;;;;5024536;28;20049;-46
2022/07/25 10:25:18;;;;;;;3.22;1.17;;;29.50;66.70;;;;;;5024250;28;20045;-46
2022/07/25 10:27:58;;;;;;;2.58;1.20;;;29.00;66.50;;;;;;5023396;28;20146;-47
2022/07/25 10:30:37;;;;;;;2.08;0.93;;;28.60;67.00;;;;;;5024554;28;20115;-48
2022/07/25 10:33:17;;;;;;;2.35;0.80;;;28.20;67.80;;;;;;5027807;28;20045;-46
2022/07/25 10:35:44;;;;;;;1.55;0.82;;;28.00;68.60;;;;;;5027020;28;20044;-46
2022/07/25 10:38:10;;;;;;;1.52;0.68;;;27.90;68.90;;;;;;5025980;28;20506;-48
2022/07/25 10:40:43;;;;;;;2.00;0.70;;;28.10;69.20;;;;;;5026518;28;20495;-49
2022/07/25 10:43:19;;;;;;;2.33;0.80;;;28.60;70.20;;;;;;5008972;28;20061;-46
2022/07/25 10:45:57;;;;;;;2.65;0.60;;;29.00;69.80;;;;;;5026757;28;20368;-46
2022/07/25 10:48:29;;;;;;;2.35;0.60;;;29.30;70.00;;;;;;5026483;28;20048;-46
2022/07/25 10:51:01;;;;;;;1.60;0.63;;;29.70;69.50;;;;;;5026660;28;20076;-47
2022/07/25 10:53:47;;;;;;;2.83;0.98;;;30.50;67.60;;;;;;5026712;28;20434;-47
2022/07/25 10:56:15;;;;;;;3.58;0.90;;;30.80;65.20;;;;;;5027011;28;20045;-46
2022/07/25 10:58:51;;;;;;;1.52;0.80;;;30.70;65.20;;;;;;5026526;28;20407;-47
2022/07/25 11:01:22;;;;;;;3.38;0.70;;;30.10;65.00;;;;;;5026503;28;20450;-47
2022/07/25 11:03:50;;;;;;;1.67;0.75;;;29.60;66.70;;;;;;5008184;28;20509;-46
2022/07/25 11:06:27;;;;;;;2.63;1.10;;;29.20;67.70;;;;;;5026187;28;20048;-47
2022/07/25 11:08:56;;;;;;;3.60;0.70;;;28.80;68.90;;;;;;5025761;28;20130;-45
2022/07/25 11:11:35;;;;;;;4.75;0.80;;;28.30;70.70;;;;;;5026107;28;20134;-45
2022/07/25 11:14:02;;;;;;;2.90;0.93;;;28.00;72.80;;;;;;5025617;28;20403;-47
2022/07/25 11:16:28;;;;;;;3.97;0.60;;;27.60;73.60;;;;;;5025509;28;20168;-46
2022/07/25 11:18:54;;;;;;;1.20;0.40;;;27.20;74.30;;;;;;5024892;28;20467;-46
2022/07/25 11:21:20;;;;;;;3.05;0.50;;;26.80;75.40;;;;;;5025773;28;20881;-46
2022/07/25 11:23:52;;;;;;;2.35;0.40;;;26.50;77.70;;;;;;5025614;28;20399;-46
2022/07/25 11:26:18;;;;;;;1.48;0.35;;;26.20;79.60;;;;;;5025759;28;20051;-45
2022/07/25 11:28:46;;;;;;;2.08;0.38;;;25.80;81.30;;;;;;5025412;28;20049;-45
2022/07/25 11:31:14;;;;;;;1.92;0.30;;;25.70;82.40;;;;;;5026169;28;20507;-46
2022/07/25 11:33:42;;;;;;;2.17;0.40;;;25.60;82.90;;;;;;5026321;28;20456;-46
2022/07/25 11:36:09;;;;;;;2.95;0.40;;;25.60;83.90;;;;;;5026216;28;20499;-47
2022/07/25 11:38:36;;;;;;;1.95;0.50;;;25.70;84.10;;;;;;5026909;28;20472;-46
2022/07/25 11:41:03;;;;;;;1.95;0.50;;;25.90;84.30;;;;;;5008766;28;20155;-47
2022/07/25 11:43:28;;;;;;;2.33;0.50;;;26.40;85.20;;;;;;5025923;28;20072;-47
2022/07/25 11:45:59;;;;;;;3.72;0.55;;;26.80;84.60;;;;;;5025069;28;20081;-46
2022/07/25 11:48:31;;;;;;;2.80;0.73;;;27.10;83.90;;;;;;5026051;28;20041;-46
2022/07/25 11:50:57;;;;;;;1.38;0.50;;;27.20;83.00;;;;;;5025994;28;20050;-46
2022/07/25 11:53:24;;;;;;;4.22;0.82;;;27.30;82.50;;;;;;5026358;28;20451;-46
2022/07/25 11:55:50;;;;;;;4.05;0.88;;;27.30;81.30;;;;;;5026091;28;20053;-47
2022/07/25 11:58:17;;;;;;;7.18;0.95;;;27.40;81.90;;;;;;5026039;28;20047;-47
2022/07/25 12:00:45;;;;;;;5.10;0.93;;;27.60;81.90;;;;;;5025847;28;20566;-46
2022/07/25 12:03:13;;;;;;;5.45;1.10;;;27.70;80.60;;;;;;5025791;28;20518;-45
2022/07/25 12:05:39;;;;;;;3.05;0.60;;;27.80;79.60;;;;;;5025733;28;20518;-46
2022/07/25 12:08:13;;;;;;;4.75;0.75;;;27.60;78.90;;;;;;5025653;28;20168;-46
2022/07/25 12:10:40;;;;;;;2.97;0.80;;;27.40;78.70;;;;;;5026170;28;20085;-45
2022/07/25 12:13:08;;;;;;;3.88;0.70;;;27.40;79.00;;;;;;5026061;28;20364;-45
2022/07/25 12:15:39;;;;;;;3.80;1.13;;;27.20;79.10;;;;;;5025329;28;20044;-46
2022/07/25 12:18:07;;;;;;;3.35;0.70;;;27.00;78.90;;;;;;5026391;28;20483;-45
2022/07/25 12:20:37;;;;;;;3.35;0.88;;;27.00;79.70;;;;;;5029336;28;20124;-46
2022/07/25 12:23:06;;;;;;;4.22;0.82;;;27.10;79.70;;;;;;5028272;28;20124;-45
2022/07/25 12:25:35;;;;;;;2.03;0.85;;;27.30;79.10;;;;;;5028604;28;20045;-46
2022/07/25 12:28:00;;;;;;;2.42;0.93;;;27.20;78.60;;;;;;5029492;28;20060;-46
2022/07/25 12:30:27;;;;;;;4.93;0.90;;;27.10;78.40;;;;;;5029462;28;20045;-47
2022/07/25 12:32:53;;;;;;;4.78;1.00;;;27.10;78.10;;;;;;5029325;28;20097;-46
2022/07/25 12:35:19;;;;;;;3.42;1.00;;;26.90;77.90;;;;;;5029632;28;20033;-46
2022/07/25 12:37:45;;;;;;;4.55;0.55;;;26.70;77.60;;;;;;5029433;28;20041;-46
2022/07/25 12:40:12;;;;;;;3.92;0.85;;;26.60;77.70;;;;;;5029238;28;20121;-45
2022/07/25 12:42:38;;;;;;;4.07;1.05;;;26.40;78.20;;;;;;5028906;28;20055;-45
2022/07/25 12:45:04;;;;;;;3.50;0.68;;;26.60;78.80;;;;;;5029170;28;20128;-46